Terminal Aerodrome Forecast
Issued by NWS

Home | Current Version | Previous Version | Text Only | Print | Product List | Glossary On
Versions: 1 2 3 4 5 6 7 8 9 10 11 12 13 14 15
000
FTUS44 KBMX 300520
TAFEET
TAF
KEET 300520Z 3006/3106 00000KT P6SM SCT250
      TEMPO 3011/3012 4SM BR
     FM301500 02006KT P6SM SCT040 SCT200
     FM301900 36010KT P6SM SCT200=

USA.gov is the U.S. government's official web portal to all federal, state and local government web resources and services.